Nearby METAR Reports

 

KMQS - Coatesville, Pennsylvania, USA
Distance from station: ENE 6mi, 10km
Updated: Sat, 25-Nov-2017 1:55am EST
Clear
Clear
 Wind from calm
Wind: Calm
Temperature: 36°F , 2°C
Dew Point: 30°F , -1°C
Humidity: 81%
Barometer: 29.89 inHg , 1012.2 hPa
Clouds: Clear
Visibility: 10 miles , 16 km
2017/11/25 06:55 KMQS 250655Z AUTO 00000KT 10SM CLR 02/M01 A2989 RMK AO2
KLNS - Lancaster, Pennsylvania, USA
Distance from station: NW 21mi, 33km
Updated: Sat, 25-Nov-2017 1:53am EST
Clear
Clear
 Wind from ESE
Wind: ESE 5 mph , 7 km/h
Temperature: 34°F , 1°C
Wind Chill: 29°F , -2°C
Dew Point: 28°F , -2°C
Humidity: 81%
Barometer: 29.87 inHg , 1011.5 hPa
Clouds: Clear
Visibility: 10 miles , 16 km
2017/11/25 06:53 KLNS 250653Z AUTO 11004KT 10SM CLR 01/M02 A2987 RMK AO2 SLP116 T00061022
 
KILG - Wilmington, Delaware, USA
Distance from station: SE 28mi, 45km
Updated: Sat, 25-Nov-2017 1:51am EST
Clear
Clear
 Wind from S
Wind: S 5 mph , 7 km/h
Temperature: 37°F , 3°C
Wind Chill: 33°F , 1°C
Dew Point: 30°F , -1°C
Humidity: 75%
Barometer: 29.91 inHg , 1012.9 hPa
Clouds: Clear
Visibility: 10 miles , 16 km
2017/11/25 06:51 KILG 250651Z AUTO 18004KT 10SM CLR 03/M01 A2991 RMK AO2 SLP128 T00281006 $
KRDG - Reading, Pennsylvania, USA
Distance from station: N 29mi, 47km
Updated: Sat, 25-Nov-2017 1:54am EST
Clear
Clear
 Wind from calm
Wind: Calm
Temperature: 39°F , 4°C
Dew Point: 28°F , -2°C
Humidity: 65%
Barometer: 29.87 inHg , 1011.5 hPa
Clouds: Clear
Visibility: 10 miles , 16 km
2017/11/25 06:54 KRDG 250654Z 00000KT 10SM CLR 04/M02 A2987 RMK AO2 SLP119 T00391017
 
KPTW - Pottstown, Pennsylvania, USA
Distance from station: NE 30mi, 48km
Updated: Sat, 25-Nov-2017 1:54am EST
Clear
Clear
 Wind from calm
Wind: Calm
Temperature: 30°F , -1°C
Dew Point: 28°F , -2°C
Humidity: 93%
Barometer: 29.90 inHg , 1012.5 hPa
Clouds: Clear
Visibility: 7 miles , 11 km
2017/11/25 06:54 KPTW 250654Z AUTO 00000KT 7SM CLR M01/M02 A2990 RMK AO2 SLP123 T10061017